Bailey, Texas
Current Conditions -  °F | °C
As of 10:15 AM on Sunday 23 Nov 2014 (Local Time) from KGVT Reporting Station
Overcast Overcast  
Wind Chill: 61°   Ceiling: 900
Heat Index: 61°   Visibility: 10mi
Dew Point: 57°   Wind: 12mph
Humidity: 88%   Direction: 200°SSW
Pressure: 29.53"   Gusts: NA
Location:  33.43°N, 96.17°W
Report Text: KGVT 231615Z AUTO 20010KT 10SM OVC009 16/14 A2953 RMK AO2
Loading
Personal Weather Stations






























Interactive Weather Map New forecast layout! Learn more

10-Day Weather Forecast

Advertisements
Track Severe Weather on mobile